16°C
Porth, Newquay, Cornwall. UK  Tell A Friend
 Ad **Ad
Updated16/08/2017 20:15 
 


Nearby METAR Reports From


Metar Station     Metar Station     Metar Station     Metar Station     Metar Station
EGHQ Newquay     EGDR Culdrose (navy)     EGDX ST Athan raf     EGDY Yeovitilton (navy)     EGFF Cardiff
EGHH Bournemouth     EGBB Birmingham     EGKA Shoreham-By-Sea     EGOP Pembry Sands     EGTE Exeter Airport
EGGD Bristol     EGHE Scilly     EGJA Alderney     EGJB Guernsey     EGJJ Jersey
France       LFRC Cherbourg/Mauper     LFRB Brest/Guipavas     LFRO Lannion/Servel        
More Metars Here                                
EGHQ - Newquay, United Kingdom
Updated: 16/08/2017 19:50
Light rain, Mist, Mostly cloudy
Light rain, Mist, Mostly cloudy
 Wind from SSE
Wind: SSE 20 mph , 31 km/h, 17 kts
Temperature: 15°C
Dew Point: 14°C
Humidity: 94%
Barometer: 1013 hPa
Summary: Light rain, Mist
Clouds: Mostly Cloudy
Visibility: 3 miles , 5 km
Cloud details: Mostly Cloudy 122 m
2017/08/16 18:50 EGHQ 161850Z 16017KT 4500 -RA BR BKN004 15/14 Q1013
EGDR - Culdrose (navy), United Kingdom
Updated: 16/08/2017 19:50
Light rain, Drizzle, Overcast
Light rain, Drizzle, Overcast
 Wind from S
Wind: S 22 mph , 35 km/h, Gust: 33 mph , 54 km/h, 19 kts
Temperature: 16°C
Dew Point: 16°C
Humidity: 100%
Barometer: 1012 hPa
Summary: Light rain, Drizzle
Clouds: Overcast
Visibility: 0 mile , 1 km
Cloud details: Partly Cloudy 30 m
Overcast 61 m
2017/08/16 18:50 EGDR 161850Z 18019G29KT 0800 -RADZ SCT001 OVC002 16/16 Q1012 RED
 
EGHC - Lands End, United Kingdom
Updated: 16/08/2017 16:50

NOT Current
Rain drizzle, Mostly cloudy
Rain drizzle, Mostly cloudy
 Wind from S
Wind: S 23 mph , 37 km/h, 20 kts
Temperature: 15°C
Dew Point: 15°C
Humidity: 100%
Barometer: 1014 hPa
Summary: Rain Drizzle
Clouds: Mostly Cloudy
Visibility: 2 miles , 3 km
Cloud details: Mostly Cloudy 30 m
2017/08/16 15:50 EGHC 161550Z 19020KT 3000 RADZ BKN001 15/15 Q1014
EGHE - Scilly Saint Mar, United Kingdom
Updated: 16/08/2017 17:50

NOT Current
Light rain, Drizzle, Mist, Mostly cloudy
Light rain, Drizzle, Mist, Mostly cloudy
 Wind from S
Wind: S 28 mph , 44 km/h, 24 kts
Temperature: 16°C
Dew Point: 16°C
Humidity: 100%
Barometer: 1013 hPa
Summary: Light rain, Drizzle, Mist
Clouds: Mostly Cloudy
Visibility: 1 mile , 2 km
Cloud details: Partly Cloudy 30 m
Mostly Cloudy 61 m
2017/08/16 16:50 EGHE 161650Z 18024KT 1500 -RADZ BR SCT001 BKN002 16/16 Q1013
 
EGTE - Exeter Airport, United Kingdom
Updated: 16/08/2017 19:50
Light rain, Partly cloudy
Light rain, Partly cloudy
 Wind from S
Wind: S 18 mph , 30 km/h, 16 kts
Temperature: 16°C
Dew Point: 14°C
Humidity: 88%
Barometer: 1015 hPa
Summary: Light Rain
Clouds: Partly Cloudy
Visibility: 6 miles , 10 km
Cloud details: Partly Cloudy 610 m
2017/08/16 18:50 EGTE 161850Z 17016KT 9999 -RA SCT020 16/14 Q1015
EGOP - Pembry Sands, United Kingdom
Updated: 16/08/2017 19:50
Overcast
Overcast
 Wind from S
Wind: S 28 mph , 44 km/h, 24 kts
Temperature: 16°C
Dew Point: 15°C
Humidity: 94%
Barometer: 1012 hPa
Clouds: Overcast
Visibility: 6 miles , 10 km
Cloud details: Overcast 518 m
2017/08/16 18:50 EGOP 161850Z AUTO 18024KT 9999 // OVC017/// 16/15 Q1012
 
EGDX - St Athan Raf, United Kingdom
Updated: 16/08/2017 19:50
Mostly Cloudy
Mostly Cloudy
 Wind from S
Wind: S 10 mph , 17 km/h, 9 kts
Temperature: 18°C
Dew Point: 12°C
Humidity: 68%
Barometer: 1013 hPa
Clouds: Mostly Cloudy
Visibility: 6 miles , 10 km
Cloud details: Mostly Cloudy 1494 m
2017/08/16 18:50 EGDX 161850Z AUTO 18009KT 9999 BKN049/// 18/12 Q1013 RERA
EGFF - Cardiff-Wales Ar, United Kingdom
Updated: 16/08/2017 19:50
Overcast
Overcast
 Wind from SSE
Wind: SSE 8 mph , 13 km/h, 7 kts
Temperature: 18°C
Dew Point: 13°C
Humidity: 73%
Barometer: 1014 hPa
Clouds: Overcast
Visibility: 6 miles , 10 km
Cloud details: Overcast 1280 m
2017/08/16 18:50 EGFF 161850Z AUTO 16007KT 9999 OVC042 18/13 Q1014
 
EGDY - Yeovilton (navy), United Kingdom
Updated: 16/08/2017 19:49
Clear
Clear
 Wind from SSE
Wind: SSE 10 mph , 17 km/h, 9 kts
Temperature: 18°C
Dew Point: 12°C
Humidity: 68%
Barometer: 1015 hPa
Summary: Clear
Visibility: greater than 7 miles , 10 km
2017/08/16 18:49 EGDY 161849Z 16009KT CAVOK 18/12 Q1015 BLU BECMG 9999 -RA SCT020 WHT
EGGD - Bristol/Lulsgate, United Kingdom
Updated: 16/08/2017 19:50
Clear
Clear
 Wind from S
Wind: S 12 mph , 19 km/h, 10 kts
Temperature: 16°C
Dew Point: 11°C
Humidity: 72%
Barometer: 1015 hPa
Clouds: Clear
Visibility: 6 miles , 10 km
2017/08/16 18:50 EGGD 161850Z AUTO 17010KT 140V200 9999 NCD 16/11 Q1015
 
EGBB - Birmingham Airpo, United Kingdom
Updated: 16/08/2017 19:50
Clear
Clear
 Wind from S
Wind: S 12 mph , 19 km/h, 10 kts
Temperature: 18°C
Dew Point: 11°C
Humidity: 64%
Barometer: 1014 hPa
Summary: Clear
Visibility: greater than 7 miles , 10 km
2017/08/16 18:50 EGBB 161850Z 19010KT 150V220 CAVOK 18/11 Q1014
EGHH - Bournemouth Airp, United Kingdom
Updated: 16/08/2017 19:50
Few Clouds
Few Clouds
 Wind from S
Wind: S 8 mph , 13 km/h, 7 kts
Temperature: 18°C
Dew Point: 12°C
Humidity: 68%
Barometer: 1016 hPa
Clouds: Few Clouds
Visibility: 6 miles , 10 km
Cloud details: Few Clouds 1372 m
2017/08/16 18:50 EGHH 161850Z 18007KT 9999 FEW045 18/12 Q1016
 
EGKA - Shoreham-By-Sea, United Kingdom
Updated: 16/08/2017 19:50
Clear
Clear
 Wind from S
Wind: S 7 mph , 11 km/h, 6 kts
Temperature: 17°C
Dew Point: 14°C
Humidity: 83%
Barometer: 1017 hPa
Summary: Clear
Visibility: greater than 7 miles , 10 km
2017/08/16 18:50 EGKA 161850Z 18006KT CAVOK 17/14 Q1017
EGJA - Alderney/Channel, United Kingdom
Updated: 16/08/2017 18:50

NOT Current
Clear
Clear
 Wind from SSE
Wind: SSE 8 mph , 13 km/h, 7 kts
Temperature: 18°C
Dew Point: 14°C
Humidity: 78%
Barometer: 1017 hPa
Summary: Clear
Visibility: greater than 7 miles , 10 km
2017/08/16 17:50 EGJA 161750Z 15007KT CAVOK 18/14 Q1017
 
EGJB - Guernsey Airport, United Kingdom
Updated: 16/08/2017 19:50
Clear
Clear
 Wind from SSE
Wind: SSE 13 mph , 20 km/h, 11 kts
Temperature: 18°C
Dew Point: 15°C
Humidity: 83%
Barometer: 1017 hPa
Summary: Clear
Visibility: greater than 7 miles , 10 km
2017/08/16 18:50 EGJB 161850Z 16011KT CAVOK 18/15 Q1017
EGJJ - Jersey Airport, United Kingdom
Updated: 16/08/2017 19:50
Clear
Clear
 Wind from S
Wind: S 9 mph , 15 km/h, 8 kts
Temperature: 19°C
Dew Point: 15°C
Humidity: 78%
Barometer: 1017 hPa
Summary: Clear
Visibility: greater than 7 miles , 10 km
2017/08/16 18:50 EGJJ 161850Z 18008KT CAVOK 19/15 Q1017 TEMPO RA
 
LFRC - Cherbourg/Mauper, France
Updated: 16/08/2017 20:00
Clear
Clear
 Wind from ESE
Wind: ESE 5 mph , 7 km/h, 4 kts
Temperature: 18°C
Dew Point: 14°C
Humidity: 78%
Barometer: 1017 hPa
Summary: Clear
Visibility: greater than 7 miles , 10 km
2017/08/16 19:00 LFRC 161900Z AUTO 12004KT 100V160 CAVOK 18/14 Q1017 NOSIG
LFRB - Brest/Guipavas, France
Updated: 16/08/2017 20:00
Light rain, Drizzle, Mist, Overcast
Light rain, Drizzle, Mist, Overcast
 Wind from S
Wind: S 16 mph , 26 km/h, 14 kts
Temperature: 17°C
Dew Point: 16°C
Humidity: 94%
Barometer: 1017 hPa
Summary: Light rain, Drizzle, Mist
Clouds: Overcast
Visibility: 2 miles , 3 km
Cloud details: Overcast 122 m
2017/08/16 19:00 LFRB 161900Z AUTO 18014KT 3000 -RADZ BR OVC004 17/16 Q1017 TEMPO RA OVC008 BECMG 20020G35KT
 
LFRO - Lannion/Servel, France
Updated: 16/08/2017 20:00
Overcast
Overcast
 Wind from S
Wind: S 9 mph , 15 km/h, 8 kts
Temperature: 19°C
Dew Point: 13°C
Humidity: 68%
Barometer: 1017 hPa
Clouds: Overcast
Visibility: 6 miles , 10 km
Cloud details: Mostly Cloudy 762 m
Overcast 945 m
2017/08/16 19:00 LFRO 161900Z AUTO 18008KT 140V220 9999 BKN025 OVC031 19/13 Q1017 BECMG 4000 -RA OVC008

# Note Plymouth airport closed 23/12/2011

Metar, brief description

METAR is a format for reporting weather information. A METAR weather report is predominantly used by pilots in fulfillment of a part of a pre-flight weather briefing, and by meteorologists, who use aggregated METAR information to assist in weather forecasting.

Raw METAR is the most popular format in the world for the transmission of weather data. Each METAR report contains essential information about the current weather conditions: Temperature, Dew Point, Barometric Pressure, Wind Speed and Direction, Visibility, Clouds Cover, Current Weather (Rain, Thunderstorms, Hail, Snow and so on...), here is an example of a raw metar report for EGHQ (Newquay airport).
METAR not available